sensor_id;sensor_type;location;lat;lon;timestamp;P1;durP1;ratioP1;P2;durP2;ratioP2
7493;SDS011;3788;49.902;8.590;2023-03-12T00:00:47;4.90;;;4.00;;
7493;SDS011;3788;49.902;8.590;2023-03-12T00:03:14;6.80;;;4.07;;
7493;SDS011;3788;49.902;8.590;2023-03-12T00:05:42;5.23;;;3.60;;
7493;SDS011;3788;49.902;8.590;2023-03-12T00:08:10;3.97;;;3.40;;
7493;SDS011;3788;49.902;8.590;2023-03-12T00:10:38;4.53;;;3.40;;
7493;SDS011;3788;49.902;8.590;2023-03-12T00:13:06;3.67;;;3.07;;
7493;SDS011;3788;49.902;8.590;2023-03-12T00:15:34;5.57;;;3.57;;
7493;SDS011;3788;49.902;8.590;2023-03-12T00:18:02;4.07;;;3.20;;
7493;SDS011;3788;49.902;8.590;2023-03-12T00:20:29;4.93;;;3.30;;
7493;SDS011;3788;49.902;8.590;2023-03-12T00:22:55;3.37;;;2.87;;
7493;SDS011;3788;49.902;8.590;2023-03-12T00:25:22;3.33;;;3.00;;
7493;SDS011;3788;49.902;8.590;2023-03-12T00:27:50;3.70;;;2.63;;
7493;SDS011;3788;49.902;8.590;2023-03-12T00:30:17;3.67;;;3.13;;
7493;SDS011;3788;49.902;8.590;2023-03-12T00:32:44;3.57;;;3.27;;
7493;SDS011;3788;49.902;8.590;2023-03-12T00:35:11;5.13;;;3.13;;
7493;SDS011;3788;49.902;8.590;2023-03-12T00:37:37;4.00;;;2.90;;
7493;SDS011;3788;49.902;8.590;2023-03-12T00:40:05;4.17;;;3.17;;
7493;SDS011;3788;49.902;8.590;2023-03-12T00:42:33;3.50;;;2.80;;
7493;SDS011;3788;49.902;8.590;2023-03-12T00:45:01;3.90;;;3.20;;
7493;SDS011;3788;49.902;8.590;2023-03-12T00:47:28;3.00;;;2.70;;
7493;SDS011;3788;49.902;8.590;2023-03-12T00:49:54;3.50;;;3.20;;
7493;SDS011;3788;49.902;8.590;2023-03-12T00:52:21;3.03;;;2.67;;
7493;SDS011;3788;49.902;8.590;2023-03-12T00:54:48;3.73;;;2.80;;
7493;SDS011;3788;49.902;8.590;2023-03-12T00:57:15;4.13;;;3.10;;
7493;SDS011;3788;49.902;8.590;2023-03-12T00:59:41;3.83;;;3.13;;
7493;SDS011;3788;49.902;8.590;2023-03-12T01:02:09;3.00;;;2.40;;
7493;SDS011;3788;49.902;8.590;2023-03-12T01:04:36;3.37;;;2.83;;
7493;SDS011;3788;49.902;8.590;2023-03-12T01:07:03;4.27;;;3.37;;
7493;SDS011;3788;49.902;8.590;2023-03-12T01:09:30;3.27;;;2.70;;
7493;SDS011;3788;49.902;8.590;2023-03-12T01:11:57;3.90;;;2.87;;
7493;SDS011;3788;49.902;8.590;2023-03-12T01:14:23;3.03;;;2.60;;
7493;SDS011;3788;49.902;8.590;2023-03-12T01:16:50;3.27;;;2.70;;
7493;SDS011;3788;49.902;8.590;2023-03-12T01:19:18;3.47;;;3.07;;
7493;SDS011;3788;49.902;8.590;2023-03-12T01:21:45;4.17;;;3.13;;
7493;SDS011;3788;49.902;8.590;2023-03-12T01:24:12;3.77;;;3.13;;
7493;SDS011;3788;49.902;8.590;2023-03-12T01:26:38;3.40;;;3.10;;
7493;SDS011;3788;49.902;8.590;2023-03-12T01:29:05;4.70;;;3.30;;
7493;SDS011;3788;49.902;8.590;2023-03-12T01:31:32;3.87;;;3.00;;
7493;SDS011;3788;49.902;8.590;2023-03-12T01:33:59;4.63;;;3.20;;
7493;SDS011;3788;49.902;8.590;2023-03-12T01:36:28;4.93;;;3.43;;
7493;SDS011;3788;49.902;8.590;2023-03-12T01:38:56;4.67;;;3.40;;
7493;SDS011;3788;49.902;8.590;2023-03-12T01:41:24;4.43;;;3.17;;
7493;SDS011;3788;49.902;8.590;2023-03-12T01:43:53;3.63;;;3.00;;
7493;SDS011;3788;49.902;8.590;2023-03-12T01:46:25;4.53;;;3.57;;
7493;SDS011;3788;49.902;8.590;2023-03-12T01:48:55;4.53;;;3.60;;
7493;SDS011;3788;49.902;8.590;2023-03-12T01:51:27;3.23;;;2.93;;
7493;SDS011;3788;49.902;8.590;2023-03-12T01:53:59;3.13;;;2.83;;
7493;SDS011;3788;49.902;8.590;2023-03-12T01:56:31;3.60;;;3.23;;
7493;SDS011;3788;49.902;8.590;2023-03-12T01:59:02;3.57;;;3.10;;
7493;SDS011;3788;49.902;8.590;2023-03-12T02:01:32;3.97;;;3.30;;
7493;SDS011;3788;49.902;8.590;2023-03-12T02:03:59;5.73;;;3.33;;
7493;SDS011;3788;49.902;8.590;2023-03-12T02:06:29;4.10;;;3.23;;
7493;SDS011;3788;49.902;8.590;2023-03-12T02:08:59;3.57;;;3.17;;
7493;SDS011;3788;49.902;8.590;2023-03-12T02:11:27;6.87;;;2.93;;
7493;SDS011;3788;49.902;8.590;2023-03-12T02:13:54;4.40;;;4.10;;
7493;SDS011;3788;49.902;8.590;2023-03-12T02:16:20;3.60;;;2.97;;
7493;SDS011;3788;49.902;8.590;2023-03-12T02:18:47;3.33;;;2.70;;
7493;SDS011;3788;49.902;8.590;2023-03-12T02:21:17;4.90;;;3.13;;
7493;SDS011;3788;49.902;8.590;2023-03-12T02:23:50;4.63;;;3.13;;
7493;SDS011;3788;49.902;8.590;2023-03-12T02:26:22;3.10;;;2.80;;
7493;SDS011;3788;49.902;8.590;2023-03-12T02:28:50;4.13;;;3.40;;
7493;SDS011;3788;49.902;8.590;2023-03-12T02:31:19;3.90;;;3.13;;
7493;SDS011;3788;49.902;8.590;2023-03-12T02:33:49;5.37;;;3.40;;
7493;SDS011;3788;49.902;8.590;2023-03-12T02:36:17;3.27;;;2.93;;
7493;SDS011;3788;49.902;8.590;2023-03-12T02:38:44;3.07;;;2.87;;
7493;SDS011;3788;49.902;8.590;2023-03-12T02:41:14;3.93;;;3.27;;
7493;SDS011;3788;49.902;8.590;2023-03-12T02:43:45;3.77;;;2.93;;
7493;SDS011;3788;49.902;8.590;2023-03-12T02:46:14;3.47;;;2.80;;
7493;SDS011;3788;49.902;8.590;2023-03-12T02:48:41;4.33;;;3.13;;
7493;SDS011;3788;49.902;8.590;2023-03-12T02:51:08;4.00;;;3.10;;
7493;SDS011;3788;49.902;8.590;2023-03-12T02:53:35;4.93;;;3.13;;
7493;SDS011;3788;49.902;8.590;2023-03-12T02:56:01;3.83;;;2.67;;
7493;SDS011;3788;49.902;8.590;2023-03-12T02:58:28;2.77;;;2.57;;
7493;SDS011;3788;49.902;8.590;2023-03-12T03:00:56;3.50;;;2.70;;
7493;SDS011;3788;49.902;8.590;2023-03-12T03:03:23;6.20;;;3.30;;
7493;SDS011;3788;49.902;8.590;2023-03-12T03:05:50;3.53;;;2.60;;
7493;SDS011;3788;49.902;8.590;2023-03-12T03:08:16;3.10;;;2.77;;
7493;SDS011;3788;49.902;8.590;2023-03-12T03:10:43;4.60;;;3.20;;
7493;SDS011;3788;49.902;8.590;2023-03-12T03:13:10;4.50;;;3.30;;
7493;SDS011;3788;49.902;8.590;2023-03-12T03:15:37;4.43;;;3.80;;
7493;SDS011;3788;49.902;8.590;2023-03-12T03:18:05;3.27;;;2.97;;
7493;SDS011;3788;49.902;8.590;2023-03-12T03:20:32;3.50;;;3.20;;
7493;SDS011;3788;49.902;8.590;2023-03-12T03:22:59;3.47;;;3.17;;
7493;SDS011;3788;49.902;8.590;2023-03-12T03:25:25;3.33;;;2.97;;
7493;SDS011;3788;49.902;8.590;2023-03-12T03:27:53;4.37;;;3.30;;
7493;SDS011;3788;49.902;8.590;2023-03-12T03:30:19;5.30;;;2.90;;
7493;SDS011;3788;49.902;8.590;2023-03-12T03:32:46;3.20;;;2.90;;
7493;SDS011;3788;49.902;8.590;2023-03-12T03:35:15;3.77;;;3.03;;
7493;SDS011;3788;49.902;8.590;2023-03-12T03:37:42;3.60;;;2.80;;
7493;SDS011;3788;49.902;8.590;2023-03-12T03:40:09;4.63;;;3.33;;
7493;SDS011;3788;49.902;8.590;2023-03-12T03:42:37;3.53;;;2.87;;
7493;SDS011;3788;49.902;8.590;2023-03-12T03:45:05;3.83;;;3.10;;
7493;SDS011;3788;49.902;8.590;2023-03-12T03:47:34;5.43;;;3.03;;
7493;SDS011;3788;49.902;8.590;2023-03-12T03:50:01;3.97;;;3.00;;
7493;SDS011;3788;49.902;8.590;2023-03-12T03:52:30;4.60;;;2.90;;
7493;SDS011;3788;49.902;8.590;2023-03-12T03:54:57;3.23;;;2.93;;
7493;SDS011;3788;49.902;8.590;2023-03-12T03:57:24;4.47;;;3.00;;
7493;SDS011;3788;49.902;8.590;2023-03-12T03:59:51;3.57;;;3.00;;
7493;SDS011;3788;49.902;8.590;2023-03-12T04:02:17;3.70;;;2.70;;
7493;SDS011;3788;49.902;8.590;2023-03-12T04:04:44;3.67;;;2.90;;
7493;SDS011;3788;49.902;8.590;2023-03-12T04:07:11;3.47;;;3.00;;
7493;SDS011;3788;49.902;8.590;2023-03-12T04:09:40;3.20;;;2.90;;
7493;SDS011;3788;49.902;8.590;2023-03-12T04:12:06;3.47;;;2.63;;
7493;SDS011;3788;49.902;8.590;2023-03-12T04:14:33;3.73;;;2.90;;
7493;SDS011;3788;49.902;8.590;2023-03-12T04:17:00;4.50;;;3.27;;
7493;SDS011;3788;49.902;8.590;2023-03-12T04:19:27;7.27;;;5.27;;
7493;SDS011;3788;49.902;8.590;2023-03-12T04:21:53;8.83;;;5.00;;
7493;SDS011;3788;49.902;8.590;2023-03-12T04:24:20;6.97;;;5.00;;
7493;SDS011;3788;49.902;8.590;2023-03-12T04:26:48;7.57;;;4.40;;
7493;SDS011;3788;49.902;8.590;2023-03-12T04:29:15;7.97;;;4.67;;
7493;SDS011;3788;49.902;8.590;2023-03-12T04:31:42;6.97;;;4.97;;
7493;SDS011;3788;49.902;8.590;2023-03-12T04:34:11;5.93;;;4.53;;
7493;SDS011;3788;49.902;8.590;2023-03-12T04:36:38;7.27;;;4.83;;
7493;SDS011;3788;49.902;8.590;2023-03-12T04:39:05;8.50;;;4.47;;
7493;SDS011;3788;49.902;8.590;2023-03-12T04:41:32;5.37;;;3.93;;
7493;SDS011;3788;49.902;8.590;2023-03-12T04:44:00;6.00;;;4.67;;
7493;SDS011;3788;49.902;8.590;2023-03-12T04:46:27;5.23;;;3.60;;
7493;SDS011;3788;49.902;8.590;2023-03-12T04:48:54;5.77;;;3.40;;
7493;SDS011;3788;49.902;8.590;2023-03-12T04:51:22;5.33;;;3.47;;
7493;SDS011;3788;49.902;8.590;2023-03-12T04:53:49;5.47;;;3.57;;
7493;SDS011;3788;49.902;8.590;2023-03-12T04:56:16;3.80;;;3.50;;
7493;SDS011;3788;49.902;8.590;2023-03-12T04:58:43;4.33;;;2.80;;
7493;SDS011;3788;49.902;8.590;2023-03-12T05:01:14;2.97;;;2.50;;
7493;SDS011;3788;49.902;8.590;2023-03-12T05:03:47;3.70;;;2.97;;
7493;SDS011;3788;49.902;8.590;2023-03-12T05:06:14;2.70;;;2.50;;
7493;SDS011;3788;49.902;8.590;2023-03-12T05:08:41;2.47;;;2.20;;
7493;SDS011;3788;49.902;8.590;2023-03-12T05:11:08;4.10;;;2.73;;
7493;SDS011;3788;49.902;8.590;2023-03-12T05:13:34;3.73;;;2.40;;
7493;SDS011;3788;49.902;8.590;2023-03-12T05:16:01;3.10;;;2.20;;
7493;SDS011;3788;49.902;8.590;2023-03-12T05:18:29;3.97;;;2.57;;
7493;SDS011;3788;49.902;8.590;2023-03-12T05:20:57;2.70;;;2.03;;
7493;SDS011;3788;49.902;8.590;2023-03-12T05:23:25;2.10;;;1.97;;
7493;SDS011;3788;49.902;8.590;2023-03-12T05:25:51;2.73;;;2.03;;
7493;SDS011;3788;49.902;8.590;2023-03-12T05:28:18;2.50;;;1.87;;
7493;SDS011;3788;49.902;8.590;2023-03-12T05:30:45;2.07;;;1.90;;
7493;SDS011;3788;49.902;8.590;2023-03-12T05:33:12;2.10;;;1.87;;
7493;SDS011;3788;49.902;8.590;2023-03-12T05:35:40;2.33;;;1.93;;
7493;SDS011;3788;49.902;8.590;2023-03-12T05:38:07;2.37;;;2.17;;
7493;SDS011;3788;49.902;8.590;2023-03-12T05:40:34;2.53;;;2.33;;
7493;SDS011;3788;49.902;8.590;2023-03-12T05:43:00;1.83;;;1.73;;
7493;SDS011;3788;49.902;8.590;2023-03-12T05:45:27;1.97;;;1.70;;
7493;SDS011;3788;49.902;8.590;2023-03-12T05:47:54;2.03;;;1.80;;
7493;SDS011;3788;49.902;8.590;2023-03-12T05:50:22;2.07;;;1.90;;
7493;SDS011;3788;49.902;8.590;2023-03-12T05:52:50;1.63;;;1.53;;
7493;SDS011;3788;49.902;8.590;2023-03-12T05:55:17;2.23;;;1.93;;
7493;SDS011;3788;49.902;8.590;2023-03-12T05:57:44;2.80;;;2.20;;
7493;SDS011;3788;49.902;8.590;2023-03-12T06:00:11;3.07;;;2.13;;
7493;SDS011;3788;49.902;8.590;2023-03-12T06:02:40;2.20;;;1.77;;
7493;SDS011;3788;49.902;8.590;2023-03-12T06:05:08;2.40;;;2.20;;
7493;SDS011;3788;49.902;8.590;2023-03-12T06:07:35;3.73;;;2.20;;
7493;SDS011;3788;49.902;8.590;2023-03-12T06:10:03;2.33;;;1.90;;
7493;SDS011;3788;49.902;8.590;2023-03-12T06:12:31;3.33;;;2.40;;
7493;SDS011;3788;49.902;8.590;2023-03-12T06:14:58;2.40;;;2.20;;
7493;SDS011;3788;49.902;8.590;2023-03-12T06:17:24;2.07;;;1.80;;
7493;SDS011;3788;49.902;8.590;2023-03-12T06:19:51;3.00;;;2.33;;
7493;SDS011;3788;49.902;8.590;2023-03-12T06:22:19;3.10;;;2.80;;
7493;SDS011;3788;49.902;8.590;2023-03-12T06:24:46;3.17;;;2.70;;
7493;SDS011;3788;49.902;8.590;2023-03-12T06:27:14;2.90;;;2.60;;
7493;SDS011;3788;49.902;8.590;2023-03-12T06:29:41;3.70;;;2.80;;
7493;SDS011;3788;49.902;8.590;2023-03-12T06:32:07;3.77;;;2.70;;
7493;SDS011;3788;49.902;8.590;2023-03-12T06:34:34;3.20;;;2.70;;
7493;SDS011;3788;49.902;8.590;2023-03-12T06:37:01;3.43;;;2.67;;
7493;SDS011;3788;49.902;8.590;2023-03-12T06:39:27;2.53;;;2.27;;
7493;SDS011;3788;49.902;8.590;2023-03-12T06:41:54;3.13;;;2.67;;
7493;SDS011;3788;49.902;8.590;2023-03-12T06:44:23;3.27;;;2.30;;
7493;SDS011;3788;49.902;8.590;2023-03-12T06:46:50;2.50;;;2.30;;
7493;SDS011;3788;49.902;8.590;2023-03-12T06:49:16;3.63;;;2.57;;
7493;SDS011;3788;49.902;8.590;2023-03-12T06:51:43;5.57;;;3.00;;
7493;SDS011;3788;49.902;8.590;2023-03-12T06:54:10;3.43;;;2.47;;
7493;SDS011;3788;49.902;8.590;2023-03-12T06:56:37;3.17;;;2.37;;
7493;SDS011;3788;49.902;8.590;2023-03-12T06:59:03;4.67;;;3.40;;
7493;SDS011;3788;49.902;8.590;2023-03-12T07:01:32;4.47;;;3.40;;
7493;SDS011;3788;49.902;8.590;2023-03-12T07:03:59;3.20;;;2.77;;
7493;SDS011;3788;49.902;8.590;2023-03-12T07:06:25;3.30;;;3.00;;
7493;SDS011;3788;49.902;8.590;2023-03-12T07:08:52;4.33;;;3.37;;
7493;SDS011;3788;49.902;8.590;2023-03-12T07:11:19;4.47;;;2.50;;
7493;SDS011;3788;49.902;8.590;2023-03-12T07:13:46;7.50;;;4.60;;
7493;SDS011;3788;49.902;8.590;2023-03-12T07:16:13;4.77;;;3.73;;
7493;SDS011;3788;49.902;8.590;2023-03-12T07:18:41;5.40;;;4.03;;
7493;SDS011;3788;49.902;8.590;2023-03-12T07:21:08;4.47;;;3.73;;
7493;SDS011;3788;49.902;8.590;2023-03-12T07:23:35;7.10;;;3.80;;
7493;SDS011;3788;49.902;8.590;2023-03-12T07:26:02;5.43;;;3.47;;
7493;SDS011;3788;49.902;8.590;2023-03-12T07:28:29;4.13;;;2.70;;
7493;SDS011;3788;49.902;8.590;2023-03-12T07:31:00;5.53;;;3.00;;
7493;SDS011;3788;49.902;8.590;2023-03-12T07:33:27;4.77;;;3.07;;
7493;SDS011;3788;49.902;8.590;2023-03-12T07:35:55;4.23;;;3.07;;
7493;SDS011;3788;49.902;8.590;2023-03-12T07:38:21;4.40;;;3.13;;
7493;SDS011;3788;49.902;8.590;2023-03-12T07:40:49;4.37;;;2.47;;
7493;SDS011;3788;49.902;8.590;2023-03-12T07:43:16;3.77;;;3.03;;
7493;SDS011;3788;49.902;8.590;2023-03-12T07:45:43;3.77;;;2.67;;
7493;SDS011;3788;49.902;8.590;2023-03-12T07:48:09;2.90;;;2.60;;
7493;SDS011;3788;49.902;8.590;2023-03-12T07:50:36;2.67;;;2.47;;
7493;SDS011;3788;49.902;8.590;2023-03-12T07:53:05;3.70;;;2.90;;
7493;SDS011;3788;49.902;8.590;2023-03-12T07:55:32;2.97;;;2.67;;
7493;SDS011;3788;49.902;8.590;2023-03-12T07:57:59;4.63;;;3.30;;
7493;SDS011;3788;49.902;8.590;2023-03-12T08:00:27;4.47;;;2.90;;
7493;SDS011;3788;49.902;8.590;2023-03-12T08:02:54;3.63;;;2.80;;
7493;SDS011;3788;49.902;8.590;2023-03-12T08:05:20;3.40;;;2.97;;
7493;SDS011;3788;49.902;8.590;2023-03-12T08:07:48;4.97;;;4.53;;
7493;SDS011;3788;49.902;8.590;2023-03-12T08:10:17;8.73;;;4.20;;
7493;SDS011;3788;49.902;8.590;2023-03-12T08:12:44;8.83;;;6.10;;
7493;SDS011;3788;49.902;8.590;2023-03-12T08:15:11;7.60;;;4.83;;
7493;SDS011;3788;49.902;8.590;2023-03-12T08:17:38;6.80;;;4.97;;
7493;SDS011;3788;49.902;8.590;2023-03-12T08:20:05;6.27;;;3.60;;
7493;SDS011;3788;49.902;8.590;2023-03-12T08:22:33;5.23;;;3.90;;
7493;SDS011;3788;49.902;8.590;2023-03-12T08:25:00;4.63;;;3.90;;
7493;SDS011;3788;49.902;8.590;2023-03-12T08:27:28;10.33;;;4.37;;
7493;SDS011;3788;49.902;8.590;2023-03-12T08:29:55;4.03;;;3.40;;
7493;SDS011;3788;49.902;8.590;2023-03-12T08:32:22;5.50;;;5.00;;
7493;SDS011;3788;49.902;8.590;2023-03-12T08:34:50;5.33;;;4.60;;
7493;SDS011;3788;49.902;8.590;2023-03-12T08:37:16;4.57;;;4.17;;
7493;SDS011;3788;49.902;8.590;2023-03-12T08:39:43;6.43;;;4.53;;
7493;SDS011;3788;49.902;8.590;2023-03-12T08:42:10;6.63;;;4.63;;
7493;SDS011;3788;49.902;8.590;2023-03-12T08:44:38;5.43;;;4.67;;
7493;SDS011;3788;49.902;8.590;2023-03-12T08:47:05;5.20;;;4.77;;
7493;SDS011;3788;49.902;8.590;2023-03-12T08:49:32;6.30;;;4.93;;
7493;SDS011;3788;49.902;8.590;2023-03-12T08:51:58;10.60;;;5.83;;
7493;SDS011;3788;49.902;8.590;2023-03-12T08:54:25;7.77;;;5.97;;
7493;SDS011;3788;49.902;8.590;2023-03-12T08:56:52;11.90;;;6.43;;
7493;SDS011;3788;49.902;8.590;2023-03-12T08:59:19;6.93;;;5.43;;
7493;SDS011;3788;49.902;8.590;2023-03-12T09:01:48;9.13;;;5.83;;
7493;SDS011;3788;49.902;8.590;2023-03-12T09:04:15;7.97;;;6.00;;
7493;SDS011;3788;49.902;8.590;2023-03-12T09:06:42;9.43;;;6.53;;
7493;SDS011;3788;49.902;8.590;2023-03-12T09:09:09;7.23;;;5.90;;
7493;SDS011;3788;49.902;8.590;2023-03-12T09:11:37;6.43;;;5.10;;
7493;SDS011;3788;49.902;8.590;2023-03-12T09:14:05;6.90;;;6.20;;
7493;SDS011;3788;49.902;8.590;2023-03-12T09:16:32;7.83;;;5.70;;
7493;SDS011;3788;49.902;8.590;2023-03-12T09:19:00;8.27;;;6.47;;
7493;SDS011;3788;49.902;8.590;2023-03-12T09:21:27;9.10;;;5.70;;
7493;SDS011;3788;49.902;8.590;2023-03-12T09:23:53;9.27;;;6.43;;
7493;SDS011;3788;49.902;8.590;2023-03-12T09:26:20;9.57;;;7.07;;
7493;SDS011;3788;49.902;8.590;2023-03-12T09:28:47;11.03;;;7.47;;
7493;SDS011;3788;49.902;8.590;2023-03-12T09:31:14;14.47;;;6.40;;
7493;SDS011;3788;49.902;8.590;2023-03-12T09:33:41;7.47;;;6.00;;
7493;SDS011;3788;49.902;8.590;2023-03-12T09:36:09;10.53;;;6.27;;
7493;SDS011;3788;49.902;8.590;2023-03-12T09:38:36;8.23;;;6.00;;
7493;SDS011;3788;49.902;8.590;2023-03-12T09:41:03;8.33;;;6.97;;
7493;SDS011;3788;49.902;8.590;2023-03-12T09:43:32;9.83;;;6.43;;
7493;SDS011;3788;49.902;8.590;2023-03-12T09:46:04;11.70;;;6.60;;
7493;SDS011;3788;49.902;8.590;2023-03-12T09:48:37;8.90;;;6.03;;
7493;SDS011;3788;49.902;8.590;2023-03-12T09:51:05;9.30;;;7.13;;
7493;SDS011;3788;49.902;8.590;2023-03-12T09:53:41;6.27;;;5.67;;
7493;SDS011;3788;49.902;8.590;2023-03-12T09:56:13;9.83;;;6.70;;
7493;SDS011;3788;49.902;8.590;2023-03-12T09:58:42;12.43;;;8.23;;
7493;SDS011;3788;49.902;8.590;2023-03-12T10:01:17;9.70;;;6.40;;
7493;SDS011;3788;49.902;8.590;2023-03-12T10:03:59;10.10;;;5.87;;
7493;SDS011;3788;49.902;8.590;2023-03-12T10:06:44;8.43;;;5.43;;
7493;SDS011;3788;49.902;8.590;2023-03-12T10:09:24;8.10;;;5.97;;
7493;SDS011;3788;49.902;8.590;2023-03-12T10:12:05;8.23;;;5.50;;
7493;SDS011;3788;49.902;8.590;2023-03-12T10:14:42;10.10;;;5.97;;
7493;SDS011;3788;49.902;8.590;2023-03-12T10:17:19;9.93;;;5.43;;
7493;SDS011;3788;49.902;8.590;2023-03-12T10:20:15;8.37;;;5.30;;
7493;SDS011;3788;49.902;8.590;2023-03-12T10:22:54;10.50;;;5.63;;
7493;SDS011;3788;49.902;8.590;2023-03-12T10:25:27;6.10;;;5.50;;
7493;SDS011;3788;49.902;8.590;2023-03-12T10:28:03;9.40;;;5.40;;
7493;SDS011;3788;49.902;8.590;2023-03-12T10:30:39;9.63;;;6.17;;
7493;SDS011;3788;49.902;8.590;2023-03-12T10:33:12;10.90;;;6.70;;
7493;SDS011;3788;49.902;8.590;2023-03-12T10:35:43;9.50;;;6.87;;
7493;SDS011;3788;49.902;8.590;2023-03-12T10:38:14;8.67;;;6.47;;
7493;SDS011;3788;49.902;8.590;2023-03-12T10:40:45;8.33;;;6.93;;
7493;SDS011;3788;49.902;8.590;2023-03-12T10:43:13;11.23;;;7.57;;
7493;SDS011;3788;49.902;8.590;2023-03-12T10:45:41;7.63;;;6.10;;
7493;SDS011;3788;49.902;8.590;2023-03-12T10:48:17;10.70;;;7.50;;
7493;SDS011;3788;49.902;8.590;2023-03-12T10:50:58;12.97;;;8.50;;
7493;SDS011;3788;49.902;8.590;2023-03-12T10:53:28;11.00;;;8.70;;
7493;SDS011;3788;49.902;8.590;2023-03-12T10:55:57;14.87;;;9.00;;
7493;SDS011;3788;49.902;8.590;2023-03-12T10:58:34;11.57;;;8.13;;
7493;SDS011;3788;49.902;8.590;2023-03-12T11:01:03;14.97;;;9.23;;
7493;SDS011;3788;49.902;8.590;2023-03-12T11:03:32;13.43;;;8.87;;
7493;SDS011;3788;49.902;8.590;2023-03-12T11:06:00;11.47;;;9.07;;
7493;SDS011;3788;49.902;8.590;2023-03-12T11:08:30;12.77;;;10.03;;
7493;SDS011;3788;49.902;8.590;2023-03-12T11:10:59;13.07;;;9.53;;
7493;SDS011;3788;49.902;8.590;2023-03-12T11:13:28;11.53;;;8.47;;
7493;SDS011;3788;49.902;8.590;2023-03-12T11:15:57;11.07;;;9.03;;
7493;SDS011;3788;49.902;8.590;2023-03-12T11:18:27;12.50;;;9.47;;
7493;SDS011;3788;49.902;8.590;2023-03-12T11:20:57;13.10;;;9.60;;
7493;SDS011;3788;49.902;8.590;2023-03-12T11:23:40;10.97;;;8.80;;
7493;SDS011;3788;49.902;8.590;2023-03-12T11:26:10;15.33;;;10.93;;
7493;SDS011;3788;49.902;8.590;2023-03-12T11:28:42;10.90;;;8.67;;
7493;SDS011;3788;49.902;8.590;2023-03-12T11:31:14;11.30;;;10.20;;
7493;SDS011;3788;49.902;8.590;2023-03-12T11:33:45;16.17;;;11.93;;
7493;SDS011;3788;49.902;8.590;2023-03-12T11:36:15;12.35;;;11.05;;
7493;SDS011;3788;49.902;8.590;2023-03-12T11:38:53;13.70;;;11.03;;
7493;SDS011;3788;49.902;8.590;2023-03-12T11:41:29;16.03;;;9.47;;
7493;SDS011;3788;49.902;8.590;2023-03-12T11:44:12;13.97;;;10.60;;
7493;SDS011;3788;49.902;8.590;2023-03-12T11:46:48;9.90;;;8.80;;
7493;SDS011;3788;49.902;8.590;2023-03-12T11:49:28;13.18;;;10.77;;
7493;SDS011;3788;49.902;8.590;2023-03-12T11:52:03;12.23;;;9.23;;
7493;SDS011;3788;49.902;8.590;2023-03-12T11:54:47;11.20;;;9.17;;
7493;SDS011;3788;49.902;8.590;2023-03-12T11:57:40;10.37;;;9.27;;
7493;SDS011;3788;49.902;8.590;2023-03-12T12:00:17;9.77;;;8.60;;
7493;SDS011;3788;49.902;8.590;2023-03-12T12:02:58;11.37;;;9.57;;
7493;SDS011;3788;49.902;8.590;2023-03-12T12:05:37;12.77;;;9.33;;
7493;SDS011;3788;49.902;8.590;2023-03-12T12:08:19;11.17;;;9.07;;
7493;SDS011;3788;49.902;8.590;2023-03-12T12:10:58;13.07;;;9.33;;
7493;SDS011;3788;49.902;8.590;2023-03-12T12:13:33;11.27;;;9.27;;
7493;SDS011;3788;49.902;8.590;2023-03-12T12:16:13;9.90;;;8.87;;
7493;SDS011;3788;49.902;8.590;2023-03-12T12:18:55;11.83;;;9.50;;
7493;SDS011;3788;49.902;8.590;2023-03-12T12:21:40;11.30;;;8.30;;
7493;SDS011;3788;49.902;8.590;2023-03-12T12:24:31;9.33;;;8.30;;
7493;SDS011;3788;49.902;8.590;2023-03-12T12:27:10;9.03;;;8.13;;
7493;SDS011;3788;49.902;8.590;2023-03-12T12:29:56;8.47;;;7.37;;
7493;SDS011;3788;49.902;8.590;2023-03-12T12:32:32;8.50;;;7.67;;
7493;SDS011;3788;49.902;8.590;2023-03-12T12:35:17;10.07;;;9.00;;
7493;SDS011;3788;49.902;8.590;2023-03-12T12:37:53;9.50;;;8.50;;
7493;SDS011;3788;49.902;8.590;2023-03-12T12:40:24;9.13;;;8.23;;
7493;SDS011;3788;49.902;8.590;2023-03-12T12:42:57;10.77;;;8.93;;
7493;SDS011;3788;49.902;8.590;2023-03-12T12:45:40;9.50;;;7.87;;
7493;SDS011;3788;49.902;8.590;2023-03-12T12:48:10;9.37;;;7.87;;
7493;SDS011;3788;49.902;8.590;2023-03-12T12:50:41;9.63;;;8.00;;
7493;SDS011;3788;49.902;8.590;2023-03-12T12:53:13;12.10;;;9.27;;
7493;SDS011;3788;49.902;8.590;2023-03-12T12:55:45;8.90;;;7.60;;
7493;SDS011;3788;49.902;8.590;2023-03-12T12:58:22;10.13;;;7.53;;
7493;SDS011;3788;49.902;8.590;2023-03-12T13:01:02;9.20;;;7.83;;
7493;SDS011;3788;49.902;8.590;2023-03-12T13:03:28;7.83;;;7.03;;
7493;SDS011;3788;49.902;8.590;2023-03-12T13:05:57;9.93;;;7.47;;
7493;SDS011;3788;49.902;8.590;2023-03-12T13:08:36;8.80;;;7.23;;
7493;SDS011;3788;49.902;8.590;2023-03-12T13:11:24;12.03;;;8.13;;
7493;SDS011;3788;49.902;8.590;2023-03-12T13:16:44;9.93;;;8.07;;
7493;SDS011;3788;49.902;8.590;2023-03-12T13:19:23;9.33;;;7.20;;
7493;SDS011;3788;49.902;8.590;2023-03-12T13:21:55;8.63;;;6.20;;
7493;SDS011;3788;49.902;8.590;2023-03-12T13:24:33;9.03;;;7.13;;
7493;SDS011;3788;49.902;8.590;2023-03-12T13:27:07;7.23;;;6.53;;
7493;SDS011;3788;49.902;8.590;2023-03-12T13:29:41;8.60;;;6.07;;
7493;SDS011;3788;49.902;8.590;2023-03-12T13:32:08;6.93;;;6.27;;
7493;SDS011;3788;49.902;8.590;2023-03-12T13:34:56;6.80;;;5.80;;
7493;SDS011;3788;49.902;8.590;2023-03-12T13:37:27;6.47;;;5.57;;
7493;SDS011;3788;49.902;8.590;2023-03-12T13:40:35;7.43;;;6.33;;
7493;SDS011;3788;49.902;8.590;2023-03-12T13:43:07;7.47;;;6.60;;
7493;SDS011;3788;49.902;8.590;2023-03-12T13:45:41;11.17;;;7.20;;
7493;SDS011;3788;49.902;8.590;2023-03-12T13:48:21;9.43;;;6.77;;
7493;SDS011;3788;49.902;8.590;2023-03-12T13:50:50;7.73;;;6.00;;
7493;SDS011;3788;49.902;8.590;2023-03-12T13:53:20;8.70;;;5.90;;
7493;SDS011;3788;49.902;8.590;2023-03-12T13:55:48;10.00;;;6.30;;
7493;SDS011;3788;49.902;8.590;2023-03-12T13:58:25;9.40;;;6.33;;
7493;SDS011;3788;49.902;8.590;2023-03-12T14:00:57;11.63;;;7.43;;
7493;SDS011;3788;49.902;8.590;2023-03-12T14:03:28;8.33;;;6.37;;
7493;SDS011;3788;49.902;8.590;2023-03-12T14:05:59;10.87;;;5.63;;
7493;SDS011;3788;49.902;8.590;2023-03-12T14:08:56;11.30;;;7.93;;
7493;SDS011;3788;49.902;8.590;2023-03-12T14:11:36;11.47;;;6.47;;
7493;SDS011;3788;49.902;8.590;2023-03-12T14:17:11;13.73;;;7.50;;
7493;SDS011;3788;49.902;8.590;2023-03-12T14:19:42;8.30;;;5.43;;
7493;SDS011;3788;49.902;8.590;2023-03-12T14:22:13;6.27;;;3.87;;
7493;SDS011;3788;49.902;8.590;2023-03-12T14:24:40;8.17;;;4.20;;
7493;SDS011;3788;49.902;8.590;2023-03-12T14:27:15;12.17;;;5.70;;
7493;SDS011;3788;49.902;8.590;2023-03-12T14:29:46;11.20;;;5.60;;
7493;SDS011;3788;49.902;8.590;2023-03-12T14:32:18;11.67;;;5.10;;
7493;SDS011;3788;49.902;8.590;2023-03-12T14:34:48;10.93;;;4.53;;
7493;SDS011;3788;49.902;8.590;2023-03-12T14:37:20;5.83;;;4.20;;
7493;SDS011;3788;49.902;8.590;2023-03-12T14:39:49;10.40;;;4.27;;
7493;SDS011;3788;49.902;8.590;2023-03-12T14:42:20;8.33;;;4.43;;
7493;SDS011;3788;49.902;8.590;2023-03-12T14:44:53;8.80;;;5.03;;
7493;SDS011;3788;49.902;8.590;2023-03-12T14:47:24;9.93;;;4.90;;
7493;SDS011;3788;49.902;8.590;2023-03-12T14:49:53;9.97;;;4.23;;
7493;SDS011;3788;49.902;8.590;2023-03-12T14:52:22;11.07;;;5.13;;
7493;SDS011;3788;49.902;8.590;2023-03-12T14:54:52;9.67;;;4.00;;
7493;SDS011;3788;49.902;8.590;2023-03-12T14:57:20;9.20;;;3.80;;
7493;SDS011;3788;49.902;8.590;2023-03-12T14:59:50;7.70;;;3.37;;
7493;SDS011;3788;49.902;8.590;2023-03-12T15:02:19;7.50;;;3.37;;
7493;SDS011;3788;49.902;8.590;2023-03-12T15:04:50;6.13;;;3.13;;
7493;SDS011;3788;49.902;8.590;2023-03-12T15:07:20;7.80;;;3.20;;
7493;SDS011;3788;49.902;8.590;2023-03-12T15:09:50;7.37;;;4.30;;
7493;SDS011;3788;49.902;8.590;2023-03-12T15:12:19;10.03;;;5.43;;
7493;SDS011;3788;49.902;8.590;2023-03-12T15:14:47;7.47;;;5.13;;
7493;SDS011;3788;49.902;8.590;2023-03-12T15:17:17;10.80;;;5.43;;
7493;SDS011;3788;49.902;8.590;2023-03-12T15:19:45;10.00;;;5.47;;
7493;SDS011;3788;49.902;8.590;2023-03-12T15:22:15;7.87;;;5.07;;
7493;SDS011;3788;49.902;8.590;2023-03-12T15:24:45;7.47;;;4.50;;
7493;SDS011;3788;49.902;8.590;2023-03-12T15:27:29;8.67;;;4.23;;
7493;SDS011;3788;49.902;8.590;2023-03-12T15:29:59;10.57;;;4.37;;
7493;SDS011;3788;49.902;8.590;2023-03-12T15:32:26;9.63;;;4.03;;
7493;SDS011;3788;49.902;8.590;2023-03-12T15:34:55;9.70;;;5.03;;